Flight Track Log - Related Links

Times and Time Zones

All times are in EDT time to prevent confusion due to time zone crossing. See the FAO854 flight status page for this flight to view local times or setup timezone preferences in your user account.

Time Position Orientation Groundspeed Altitude Reporting Facility
EDT Latitude Longitude Course Direction KTS MPH feet Rate Location/Type
Fri 03:53:10 PM 27.8833 -82.6833 180° South 176 203 800  Level Tampa TRACON
Fri 03:53:58 PM 27.8500 -82.6833 180° South 195 224 1,600 944 Climbing Tampa TRACON
Fri 03:54:58 PM 27.8000 -82.6833 180° South 214 246 2,500 1,300 Climbing Tampa TRACON
Fri 03:55:58 PM 27.7667 -82.7333 233° Southwest 226 260 4,200 1,667 Climbing Tampa TRACON
Fri 03:57:04 PM 27.7667 -82.8333 270° West 283 326 6,000 1,804 Climbing Tampa TRACON
Fri 04:00:54 PM 28.0853 -82.8878 351° North 371 427 13,100 1,986 Climbing Jacksonville Center
Fri 04:01:54 PM 28.1875 -82.8903 359° North 371 427 15,600 2,250 Climbing Jacksonville Center
Fri 04:02:54 PM 28.2961 -82.8856 North 380 437 17,600 1,850 Climbing Jacksonville Center
Fri 04:03:54 PM 28.4067 -82.8903 358° North 390 449 19,300 1,600 Climbing Jacksonville Center
Fri 04:04:54 PM 28.5131 -82.9233 345° North 390 449 20,800 1,600 Climbing Jacksonville Center
Fri 04:05:54 PM 28.6131 -82.9542 345° North 408 470 22,500 1,600 Climbing Jacksonville Center
Fri 04:06:54 PM 28.7217 -82.9897 344° North 403 464 24,000 1,500 Climbing Jacksonville Center
Fri 04:07:54 PM 28.8364 -83.0278 344° North 408 470 25,500 1,400 Climbing Jacksonville Center
Fri 04:08:54 PM 28.9511 -83.0681 343° North 413 475 26,800 1,900 Climbing Jacksonville Center
Fri 04:09:54 PM 29.0639 -83.1039 344° North 420 483 29,300 1,900 Climbing Jacksonville Center
Fri 04:10:54 PM 29.1703 -83.1422 343° North 406 467 30,600 1,250 Climbing Jacksonville Center
Fri 04:11:54 PM 29.2744 -83.1783 343° North 400 460 31,800 700 Climbing Jacksonville Center
Fri 04:12:54 PM 29.3892 -83.2192 343° North 394 453 32,000 100 Climbing Jacksonville Center
Fri 04:13:54 PM 29.4936 -83.2528 344° North 394 453 32,000  Level Jacksonville Center
Fri 04:14:54 PM 29.5958 -83.2914 342° North 394 453 32,000  Level Jacksonville Center
Fri 04:15:54 PM 29.7019 -83.3278 343° North 388 447 32,000  Level Jacksonville Center
Fri 04:16:54 PM 29.8083 -83.3617 345° North 388 447 32,000  Level Jacksonville Center
Fri 04:17:54 PM 29.9106 -83.3958 344° North 388 447 32,000  Level Jacksonville Center
Fri 04:18:54 PM 30.0169 -83.4322 344° North 388 447 32,000  Level Jacksonville Center
Fri 04:19:54 PM 30.1192 -83.4664 344° North 388 447 32,000  Level Jacksonville Center
Fri 04:20:54 PM 30.2253 -83.5033 343° North 388 447 32,000  Level Jacksonville Center
Fri 04:21:54 PM 30.3297 -83.5375 344° North 388 447 32,000  Level Jacksonville Center
Fri 04:22:54 PM 30.4339 -83.5769 342° North 383 441 32,000  Level Jacksonville Center
Fri 04:23:54 PM 30.5381 -83.6114 344° North 383 441 32,000  Level Jacksonville Center
Fri 04:24:54 PM 30.6275 -83.6408 344° North 373 429 32,000  Level Jacksonville Center
Fri 04:25:54 PM 30.7275 -83.6781 342° North 378 435 32,000  Level Jacksonville Center
Fri 04:26:54 PM 30.8317 -83.7128 344° North 378 435 32,000  Level Jacksonville Center
Fri 04:27:54 PM 30.9381 -83.7500 343° North 385 443 32,000  Level Jacksonville Center
Fri 04:28:54 PM 31.0422 -83.7872 343° North 385 443 32,000  Level Jacksonville Center
Fri 04:29:54 PM 31.1464 -83.8247 343° North 385 443 32,000  Level Jacksonville Center
Fri 04:30:54 PM 31.2506 -83.8622 343° North 385 443 32,000  Level Jacksonville Center
Fri 04:31:54 PM 31.3567 -83.8972 344° North 385 443 32,000  Level Jacksonville Center
Fri 04:32:54 PM 31.4608 -83.9350 343° North 385 443 32,000  Level Jacksonville Center
Fri 04:34:46 PM 31.6611 -83.9925 346° North 395 455 32,000  Level Atlanta Center
Fri 04:35:46 PM 31.7717 -84.0144 350° North 403 464 32,000  Level Atlanta Center
Fri 04:36:46 PM 31.8781 -84.0364 350° North 397 457 32,000  Level Atlanta Center
Fri 04:37:46 PM 31.9867 -84.0608 349° North 392 451 32,000  Level Atlanta Center
Fri 04:38:46 PM 32.0931 -84.0856 349° North 392 451 32,000  Level Atlanta Center
Fri 04:39:46 PM 32.2017 -84.1100 349° North 392 451 32,000  Level Atlanta Center
Fri 04:40:46 PM 32.3081 -84.1347 349° North 392 451 32,000  Level Atlanta Center
Fri 04:41:46 PM 32.4144 -84.1569 350° North 392 451 32,000  Level Atlanta Center
Fri 04:42:46 PM 32.5189 -84.1842 348° North 392 451 32,000  Level Atlanta Center
Fri 04:43:46 PM 32.6253 -84.2067 350° North 392 451 32,000  Level Atlanta Center
Fri 04:44:46 PM 32.7294 -84.2289 350° North 392 451 32,000  Level Atlanta Center
Fri 04:45:46 PM 32.8464 -84.2639 346° North 392 451 32,000  Level Atlanta Center
Fri 04:46:46 PM 32.9444 -84.2839 350° North 392 451 32,000  Level Atlanta Center
Fri 04:47:46 PM 33.0489 -84.3064 350° North 392 451 32,000  Level Atlanta Center
Fri 04:48:46 PM 33.1553 -84.3292 350° North 392 451 32,000  Level Atlanta Center
Fri 04:49:46 PM 33.2617 -84.3519 350° North 392 451 32,000  Level Atlanta Center
Fri 04:50:46 PM 33.3681 -84.3794 348° North 392 451 32,000  Level Atlanta Center
Fri 04:51:46 PM 33.4722 -84.4025 350° North 387 445 32,000  Level Atlanta Center
Fri 04:52:46 PM 33.5892 -84.4278 350° North 382 440 32,000  Level Atlanta Center
Fri 04:53:46 PM 33.6933 -84.4533 348° North 382 440 32,000  Level Atlanta Center
Fri 04:54:46 PM 33.7978 -84.4789 349° North 377 434 32,000  Level Atlanta Center
Fri 04:55:46 PM 33.8956 -84.5017 349° North 391 450 32,000  Level Atlanta Center
Fri 04:56:46 PM 34.0125 -84.5325 348° North 386 444 32,000  Level Atlanta Center
Fri 04:57:46 PM 34.1189 -84.5556 350° North 392 451 32,000  Level Atlanta Center
Fri 04:58:46 PM 34.2189 -84.5789 349° North 405 466 32,000  Level Atlanta Center
Fri 04:59:46 PM 34.3231 -84.6022 350° North 393 452 32,000  Level Atlanta Center
Fri 05:00:46 PM 34.4272 -84.6281 348° North 381 438 32,000  Level Atlanta Center
Fri 05:01:46 PM 34.5419 -84.6542 349° North 381 438 32,000  Level Atlanta Center
Fri 05:02:46 PM 34.6525 -84.6828 348° North 387 445 32,000  Level Atlanta Center
Fri 05:03:46 PM 34.7567 -84.7114 347° North 387 445 32,000  Level Atlanta Center
Fri 05:04:46 PM 34.8608 -84.7375 348° North 387 445 32,000  Level Atlanta Center
Fri 05:05:46 PM 34.9672 -84.7636 349° North 387 445 32,000  Level Atlanta Center
Fri 05:06:46 PM 35.0756 -84.7925 348° North 392 451 32,000  Level Atlanta Center
Fri 05:07:46 PM 35.1839 -84.8189 349° North 392 451 32,000  Level Atlanta Center
Fri 05:08:46 PM 35.2881 -84.8453 348° North 392 451 32,000  Level Atlanta Center
Fri 05:09:46 PM 35.3964 -84.8719 349° North 392 451 32,000  Level Atlanta Center
Fri 05:10:46 PM 35.4836 -84.8931 349° North 392 451 32,000  Level Atlanta Center
Fri 05:11:46 PM 35.5983 -84.9225 348° North 392 451 32,000  Level Atlanta Center
Fri 05:12:46 PM 35.7086 -84.9517 348° North 392 451 32,000  Level Atlanta Center
Fri 05:13:46 PM 35.8231 -84.9839 347° North 392 451 32,000  Level Atlanta Center
Fri 05:14:46 PM 35.9231 -85.0056 350° North 397 457 32,000  Level Atlanta Center
Fri 05:16:17 PM 36.0981 -85.0483 349° North 395 455 32,000  Level Indianapolis Center
Fri 05:17:19 PM 36.2061 -85.0764 348° North 395 455 32,000  Level Indianapolis Center
Fri 05:18:21 PM 36.3158 -85.1050 348° North 396 456 32,000  Level Indianapolis Center
Fri 05:19:23 PM 36.4258 -85.1339 348° North 398 458 32,000  Level Indianapolis Center
Fri 05:20:25 PM 36.5378 -85.1611 349° North 402 463 32,000  Level Indianapolis Center
Fri 05:21:27 PM 36.6492 -85.1903 348° North 407 468 32,000  Level Indianapolis Center
Fri 05:22:29 PM 36.7831 -85.2250 348° North 408 470 32,000  Level Indianapolis Center
Fri 05:23:31 PM 36.8958 -85.2547 348° North 408 470 32,000  Level Indianapolis Center
Fri 05:24:34 PM 37.0081 -85.2831 349° North 409 471 32,000  Level Indianapolis Center
Fri 05:25:36 PM 37.1172 -85.3103 349° North 409 471 32,000  Level Indianapolis Center
Fri 05:26:38 PM 37.2394 -85.2983 North 431 496 32,000  Level Indianapolis Center
Fri 05:27:40 PM 37.3814 -85.2997 360° North 436 502 32,000  Level Indianapolis Center
Fri 05:28:42 PM 37.4950 -85.3267 349° North 420 483 32,000  Level Indianapolis Center
Fri 05:29:44 PM 37.6125 -85.3508 351° North 420 483 32,000  Level Indianapolis Center
Fri 05:30:46 PM 37.7300 -85.3742 351° North 424 488 32,000  Level Indianapolis Center
Fri 05:31:48 PM 37.8533 -85.4028 350° North 420 483 32,000  Level Indianapolis Center
Fri 05:32:50 PM 37.9658 -85.4286 350° North 416 479 32,000  Level Indianapolis Center
Fri 05:33:52 PM 38.0797 -85.4550 350° North 415 478 32,000  Level Indianapolis Center
Fri 05:34:54 PM 38.1944 -85.4894 347° North 419 482 32,000  Level Indianapolis Center
Fri 05:35:57 PM 38.3061 -85.5258 346° North 416 479 32,000  Level Indianapolis Center
Fri 05:36:59 PM 38.4197 -85.5578 348° North 416 479 32,000  Level Indianapolis Center
Fri 05:38:01 PM 38.5539 -85.6089 343° North 416 479 32,000  Level Indianapolis Center
Fri 05:39:03 PM 38.6742 -85.6075 North 442 509 32,000  Level Indianapolis Center
Fri 05:40:05 PM 38.7986 -85.5911 North 451 519 32,000  Level Indianapolis Center
Fri 05:41:08 PM 38.9108 -85.6342 343° North 431 496 32,000 -145 Level Indianapolis Center
Fri 05:42:09 PM 39.0283 -85.6608 350° North 427 491 31,700 -537 Descending Indianapolis Center
Fri 05:43:11 PM 39.1417 -85.6872 350° North 421 484 30,900 -968 Descending Indianapolis Center
Fri 05:44:13 PM 39.2814 -85.7219 349° North 423 487 29,700 -1,016 Descending Indianapolis Center
Fri 05:45:15 PM 39.4014 -85.7486 350° North 436 502 28,800 -912 Descending Indianapolis Center
Fri 05:46:18 PM 39.5181 -85.7775 349° North 433 498 27,800 -960 Descending Indianapolis Center
Fri 05:47:20 PM 39.6331 -85.8056 349° North 427 491 26,800 -1,210 Descending Indianapolis Center
Fri 05:48:22 PM 39.7469 -85.8314 350° North 426 490 25,300 -1,645 Descending Indianapolis Center
Fri 05:49:24 PM 39.8842 -85.8644 350° North 425 489 23,400 -1,597 Descending Indianapolis Center
Fri 05:50:26 PM 39.9942 -85.8908 350° North 415 478 22,000 -677 Descending Indianapolis Center
Fri 05:51:28 PM 40.0953 -85.9156 349° North 384 442 22,000  Level Indianapolis Center
Fri 05:52:10 PM 40.1772 -85.9356 349° North 377 434 22,000  Level Chicago Center
Fri 05:53:12 PM 40.2786 -85.9589 350° North 374 430 22,000  Level Chicago Center
Fri 05:54:14 PM 40.3806 -85.9861 349° North 375 432 22,000  Level Chicago Center
Fri 05:55:16 PM 40.4831 -86.0103 350° North 376 433 22,000 -581 Level Chicago Center
Fri 05:56:18 PM 40.5856 -86.0361 349° North 375 432 20,800 -1,548 Descending Chicago Center
Fri 05:57:20 PM 40.6958 -86.0617 350° North 365 420 18,800 -2,016 Descending Chicago Center
Fri 05:58:23 PM 40.7961 -86.0878 349° North 365 420 16,600 -2,016 Descending Chicago Center
Fri 05:59:25 PM 40.8950 -86.1122 349° North 362 417 14,600 -1,984 Descending Chicago Center
Fri 06:00:27 PM 40.9908 -86.1358 349° North 353 406 12,500 -1,790 Descending Chicago Center
Fri 06:01:29 PM 41.1025 -86.1550 353° North 340 391 10,900 -1,210 Descending Chicago Center
Fri 06:02:31 PM 41.1883 -86.1439 North 312 359 10,000 -1,113 Descending Chicago Center
Fri 06:03:33 PM 41.2708 -86.1378 North 298 343 8,600 -1,306 Descending Chicago Center
Fri 06:04:35 PM 41.3492 -86.1319 North 284 327 7,300 -1,403 Descending Chicago Center
Fri 06:05:37 PM 41.4258 -86.1228 North 279 321 5,700 -1,355 Descending Chicago Center
Fri 06:06:39 PM 41.4994 -86.1164 North 272 313 4,500 -1,306 Descending Chicago Center
Fri 06:07:41 PM 41.5789 -86.1081 North 255 293 3,000 -672 Descending Chicago Center
Fri 06:08:44 PM 41.6369 -86.1033 North 233 268 3,100  Climbing Chicago Center
Fri 06:09:46 PM 41.6858 -86.1014 North 203 234 3,000 -145 Descending Chicago Center
Fri 06:10:48 PM 41.7058 -86.1444 302° West 173 199 2,800 -290 Descending Chicago Center
Fri 06:11:50 PM 41.7056 -86.1950 270° West 150 173 2,400 -532 Descending Chicago Center
Fri 06:12:52 PM 41.7044 -86.2411 268° West 136 157 1,700 -435 Descending Chicago Center
Fri 06:13:54 PM 41.7036 -86.2972 269° West 133 153 1,500 -194 Descending Chicago Center

Login

Don't have an account? Register now (free) for customized features, flight alerts, and more!